EWG5M EDDG-EDLP
Flight info
| Callsign | EWG5M |
|---|---|
| Flight time | 0h 18m |
| Altitude | 11000 |
| Route | DOMEG1W/25 DOMEG DCT EXOBA EXOBA3H |
| Aircraft | A20N/M-SDE2E3FGHIRWXY/LB1 |
Departure
| Time | 2026-05-04 09:53 |
|---|---|
| Airport | Münster Osnabrück Airport (EDDG) |
Arrival
| Time | 2026-05-04 10:12 |
|---|---|
| Airport | Paderborn Lippstadt Airport (EDLP) |
| Time | Latitude | Longitude | Altitude | Speed | Heading |
|---|---|---|---|---|---|
| 2026-05-04 09:38 | 52.13168 | 7.69372 | 167 ft | 0 kts | 198° |
| 2026-05-04 09:46 | 52.13249 | 7.69428 | 167 ft | 0 kts | 240° |
| 2026-05-04 09:49 | 52.13246 | 7.69414 | 167 ft | 6 kts | 252° |
| 2026-05-04 09:49 | 52.13244 | 7.69402 | 167 ft | 0 kts | 252° |
| 2026-05-04 09:49 | 52.13237 | 7.69366 | 167 ft | 7 kts | 258° |
| 2026-05-04 09:51 | 52.13562 | 7.69759 | 168 ft | 19 kts | 68° |
| 2026-05-04 09:51 | 52.13592 | 7.69905 | 166 ft | 6 kts | 73° |
| 2026-05-04 09:51 | 52.13602 | 7.69960 | 165 ft | 0 kts | 72° |
| 2026-05-04 09:51 | 52.13602 | 7.69961 | 165 ft | 1 kts | 69° |
| 2026-05-04 09:52 | 52.13630 | 7.70005 | 165 ft | 7 kts | 36° |
| 2026-05-04 09:52 | 52.13668 | 7.70031 | 165 ft | 6 kts | 11° |
| 2026-05-04 09:52 | 52.13756 | 7.69993 | 167 ft | 14 kts | 314° |
| 2026-05-04 09:52 | 52.13760 | 7.69878 | 169 ft | 1 kts | 249° |
| 2026-05-04 09:53 | 52.13669 | 7.69451 | 171 ft | 82 kts | 251° |
| 2026-05-04 09:53 | 52.13398 | 7.68160 | 193 ft | 152 kts | 250° |
| 2026-05-04 09:53 | 52.13073 | 7.66564 | 989 ft | 147 kts | 250° |
| 2026-05-04 09:53 | 52.12758 | 7.64951 | 1889 ft | 155 kts | 252° |
| 2026-05-04 09:54 | 52.12446 | 7.63181 | 2812 ft | 171 kts | 253° |
| 2026-05-04 09:54 | 52.12058 | 7.61181 | 3412 ft | 207 kts | 249° |
| 2026-05-04 09:54 | 52.11510 | 7.58826 | 4178 ft | 234 kts | 249° |
| 2026-05-04 09:54 | 52.10943 | 7.56357 | 5634 ft | 227 kts | 250° |
| 2026-05-04 09:55 | 52.10379 | 7.54028 | 7149 ft | 214 kts | 242° |
| 2026-05-04 09:55 | 52.09333 | 7.52438 | 8503 ft | 207 kts | 203° |
| 2026-05-04 09:55 | 52.08410 | 7.52052 | 9304 ft | 207 kts | 191° |
| 2026-05-04 09:55 | 52.07513 | 7.51886 | 9960 ft | 210 kts | 187° |
| 2026-05-04 09:56 | 52.05998 | 7.51708 | 10643 ft | 229 kts | 187° |
| 2026-05-04 09:56 | 52.04288 | 7.51495 | 10954 ft | 265 kts | 188° |
| 2026-05-04 09:56 | 52.02305 | 7.51206 | 11009 ft | 308 kts | 188° |
| 2026-05-04 09:56 | 52.00046 | 7.50919 | 10995 ft | 339 kts | 181° |
| 2026-05-04 09:57 | 51.97667 | 7.51496 | 10988 ft | 348 kts | 173° |
| 2026-05-04 09:57 | 51.95301 | 7.52181 | 10990 ft | 350 kts | 171° |
| 2026-05-04 09:57 | 51.92964 | 7.53411 | 10988 ft | 360 kts | 158° |
| 2026-05-04 09:57 | 51.92195 | 7.54054 | 10997 ft | 374 kts | 152° |
| 2026-05-04 09:58 | 51.90216 | 7.56696 | 10997 ft | 400 kts | 133° |
| 2026-05-04 09:58 | 51.88799 | 7.60623 | 10990 ft | 410 kts | 111° |
| 2026-05-04 09:58 | 51.88106 | 7.65067 | 10991 ft | 413 kts | 102° |
| 2026-05-04 10:00 | 51.84243 | 7.97013 | 11000 ft | 414 kts | 103° |
| 2026-05-04 10:00 | 51.83653 | 8.01581 | 11003 ft | 414 kts | 103° |
| 2026-05-04 10:02 | 51.79478 | 8.33413 | 10194 ft | 410 kts | 103° |
| 2026-05-04 10:04 | 51.75616 | 8.62233 | 6622 ft | 318 kts | 104° |
| 2026-05-04 10:04 | 51.75152 | 8.65642 | 6117 ft | 303 kts | 104° |
| 2026-05-04 10:04 | 51.74707 | 8.68903 | 5605 ft | 292 kts | 104° |
| 2026-05-04 10:04 | 51.74420 | 8.71004 | 5275 ft | 286 kts | 104° |
| 2026-05-04 10:05 | 51.73994 | 8.74117 | 4785 ft | 281 kts | 104° |
| 2026-05-04 10:05 | 51.73440 | 8.78160 | 4082 ft | 274 kts | 104° |
| 2026-05-04 10:05 | 51.73038 | 8.81139 | 3567 ft | 268 kts | 102° |
| 2026-05-04 10:05 | 51.72967 | 8.83115 | 3252 ft | 265 kts | 84° |
| 2026-05-04 10:06 | 51.73613 | 8.85812 | 2990 ft | 252 kts | 53° |
| 2026-05-04 10:06 | 51.74703 | 8.87871 | 2944 ft | 231 kts | 56° |
| 2026-05-04 10:06 | 51.75205 | 8.90223 | 2978 ft | 219 kts | 90° |
| 2026-05-04 10:08 | 51.71114 | 8.87213 | 2991 ft | 215 kts | 257° |
| 2026-05-04 10:08 | 51.70688 | 8.84853 | 2962 ft | 221 kts | 247° |
| 2026-05-04 10:08 | 51.69960 | 8.82648 | 2982 ft | 224 kts | 237° |
| 2026-05-04 10:08 | 51.69115 | 8.80586 | 2955 ft | 214 kts | 236° |
| 2026-05-04 10:09 | 51.68314 | 8.78641 | 2931 ft | 201 kts | 236° |
| 2026-05-04 10:09 | 51.67554 | 8.76770 | 2735 ft | 198 kts | 236° |
| 2026-05-04 10:09 | 51.66816 | 8.74942 | 2469 ft | 195 kts | 236° |
| 2026-05-04 10:09 | 51.66084 | 8.73139 | 2156 ft | 187 kts | 236° |
| 2026-05-04 10:10 | 51.65403 | 8.71465 | 1938 ft | 175 kts | 237° |
| 2026-05-04 10:10 | 51.64766 | 8.69899 | 1715 ft | 162 kts | 237° |
| 2026-05-04 10:10 | 51.64200 | 8.68361 | 1478 ft | 159 kts | 235° |
| 2026-05-04 10:10 | 51.63568 | 8.66925 | 1275 ft | 157 kts | 237° |
| 2026-05-04 10:11 | 51.62975 | 8.65466 | 1079 ft | 154 kts | 237° |
| 2026-05-04 10:11 | 51.62395 | 8.64046 | 879 ft | 148 kts | 237° |
| 2026-05-04 10:11 | 51.61838 | 8.62682 | 701 ft | 142 kts | 237° |
| 2026-05-04 10:11 | 51.61361 | 8.61507 | 714 ft | 98 kts | 237° |
| 2026-05-04 10:12 | 51.61100 | 8.60863 | 716 ft | 59 kts | 237° |
| 2026-05-04 10:12 | 51.60888 | 8.60378 | 722 ft | 24 kts | 214° |
| 2026-05-04 10:12 | 51.60792 | 8.60370 | 722 ft | 0 kts | 152° |
| 2026-05-04 10:13 | 51.60786 | 8.60375 | 723 ft | 4 kts | 148° |
| 2026-05-04 10:13 | 51.60757 | 8.60452 | 722 ft | 11 kts | 99° |
| 2026-05-04 10:13 | 51.60793 | 8.60601 | 721 ft | 18 kts | 58° |
| 2026-05-04 10:13 | 51.60877 | 8.60810 | 721 ft | 26 kts | 57° |
| 2026-05-04 10:14 | 51.60987 | 8.61083 | 718 ft | 26 kts | 66° |
| 2026-05-04 10:14 | 51.60966 | 8.61286 | 716 ft | 16 kts | 107° |
| 2026-05-04 10:16 | 51.61086 | 8.61859 | 713 ft | 0 kts | 144° |